sensor_id;sensor_type;location;lat;lon;timestamp;pressure;altitude;pressure_sealevel;temperature;humidity
57574;BME280;68988;49.000;21.242;2023-04-22T00:00:31;98454.44;;;22.15;41.53
57574;BME280;68988;49.000;21.242;2023-04-22T00:02:58;98458.72;;;22.16;41.44
57574;BME280;68988;49.000;21.242;2023-04-22T00:05:23;98453.91;;;22.18;41.29
57574;BME280;68988;49.000;21.242;2023-04-22T00:07:49;98458.72;;;22.16;41.65
57574;BME280;68988;49.000;21.242;2023-04-22T00:10:14;98459.75;;;22.15;41.36
57574;BME280;68988;49.000;21.242;2023-04-22T00:12:40;98451.75;;;22.15;41.62
57574;BME280;68988;49.000;21.242;2023-04-22T00:15:05;98459.22;;;22.13;41.53
57574;BME280;68988;49.000;21.242;2023-04-22T00:17:32;98456.31;;;22.14;41.36
57574;BME280;68988;49.000;21.242;2023-04-22T00:19:57;98455.50;;;22.14;41.57
57574;BME280;68988;49.000;21.242;2023-04-22T00:22:23;98458.97;;;22.14;41.52
57574;BME280;68988;49.000;21.242;2023-04-22T00:24:48;98453.88;;;22.13;41.47
57574;BME280;68988;49.000;21.242;2023-04-22T00:27:14;98444.81;;;22.14;41.56
57574;BME280;68988;49.000;21.242;2023-04-22T00:29:39;98450.16;;;22.14;41.31
57574;BME280;68988;49.000;21.242;2023-04-22T00:32:04;98452.84;;;22.14;41.44
57574;BME280;68988;49.000;21.242;2023-04-22T00:34:30;98451.47;;;22.11;41.48
57574;BME280;68988;49.000;21.242;2023-04-22T00:36:55;98454.41;;;22.10;41.45
57574;BME280;68988;49.000;21.242;2023-04-22T00:39:21;98451.75;;;22.10;41.33
57574;BME280;68988;49.000;21.242;2023-04-22T00:41:46;98452.28;;;22.12;41.52
57574;BME280;68988;49.000;21.242;2023-04-22T00:44:12;98443.22;;;22.13;41.37
57574;BME280;68988;49.000;21.242;2023-04-22T00:46:38;98446.41;;;22.10;41.41
57574;BME280;68988;49.000;21.242;2023-04-22T00:49:04;98449.06;;;22.10;41.43
57574;BME280;68988;49.000;21.242;2023-04-22T00:51:31;98449.06;;;22.10;41.32
57574;BME280;68988;49.000;21.242;2023-04-22T00:53:56;98443.19;;;22.08;41.35
57574;BME280;68988;49.000;21.242;2023-04-22T00:56:24;98445.59;;;22.09;41.53
57574;BME280;68988;49.000;21.242;2023-04-22T00:58:51;98446.66;;;22.08;41.33
57574;BME280;68988;49.000;21.242;2023-04-22T01:01:17;98449.31;;;22.08;41.28
57574;BME280;68988;49.000;21.242;2023-04-22T01:03:43;98452.53;;;22.10;41.39
57574;BME280;68988;49.000;21.242;2023-04-22T01:06:10;98452.00;;;22.08;41.49
57574;BME280;68988;49.000;21.242;2023-04-22T01:08:36;98455.72;;;22.07;41.25
57574;BME280;68988;49.000;21.242;2023-04-22T01:11:01;98458.66;;;22.06;41.30
57574;BME280;68988;49.000;21.242;2023-04-22T01:13:26;98453.56;;;22.04;41.51
57574;BME280;68988;49.000;21.242;2023-04-22T01:15:52;98461.88;;;22.08;41.47
57574;BME280;68988;49.000;21.242;2023-04-22T01:18:17;98457.06;;;22.05;41.61
57574;BME280;68988;49.000;21.242;2023-04-22T01:20:43;98460.00;;;22.03;41.42
57574;BME280;68988;49.000;21.242;2023-04-22T01:23:21;98465.09;;;22.10;41.33
57574;BME280;68988;49.000;21.242;2023-04-22T01:25:48;98455.97;;;22.00;41.57
57574;BME280;68988;49.000;21.242;2023-04-22T01:28:14;98453.81;;;22.03;41.40
57574;BME280;68988;49.000;21.242;2023-04-22T01:30:41;98454.34;;;21.99;41.34
57574;BME280;68988;49.000;21.242;2023-04-22T01:33:08;98466.63;;;22.00;41.28
57574;BME280;68988;49.000;21.242;2023-04-22T01:35:34;98464.75;;;22.01;41.26
57574;BME280;68988;49.000;21.242;2023-04-22T01:38:05;98461.31;;;22.00;41.21
57574;BME280;68988;49.000;21.242;2023-04-22T01:40:32;98468.50;;;22.00;41.33
57574;BME280;68988;49.000;21.242;2023-04-22T01:42:58;98466.63;;;22.00;41.31
57574;BME280;68988;49.000;21.242;2023-04-22T01:45:25;98472.25;;;21.99;41.27
57574;BME280;68988;49.000;21.242;2023-04-22T01:47:51;98468.78;;;21.98;41.49
57574;BME280;68988;49.000;21.242;2023-04-22T01:50:16;98464.22;;;21.99;41.40
57574;BME280;68988;49.000;21.242;2023-04-22T01:52:42;98467.16;;;21.97;41.41
57574;BME280;68988;49.000;21.242;2023-04-22T01:55:08;98466.91;;;21.99;41.26
57574;BME280;68988;49.000;21.242;2023-04-22T01:57:33;98469.56;;;21.99;41.19
57574;BME280;68988;49.000;21.242;2023-04-22T01:59:59;98470.09;;;21.96;41.50
57574;BME280;68988;49.000;21.242;2023-04-22T02:02:25;98467.16;;;21.97;41.29
57574;BME280;68988;49.000;21.242;2023-04-22T02:04:50;98465.53;;;21.96;41.17
57574;BME280;68988;49.000;21.242;2023-04-22T02:07:16;98470.38;;;21.99;41.19
57574;BME280;68988;49.000;21.242;2023-04-22T02:09:42;98469.28;;;21.95;41.42
57574;BME280;68988;49.000;21.242;2023-04-22T02:12:07;98463.94;;;21.95;41.29
57574;BME280;68988;49.000;21.242;2023-04-22T02:14:33;98461.28;;;21.95;41.35
57574;BME280;68988;49.000;21.242;2023-04-22T02:16:58;98456.19;;;21.94;41.24
57574;BME280;68988;49.000;21.242;2023-04-22T02:19:24;98460.72;;;21.93;41.22
57574;BME280;68988;49.000;21.242;2023-04-22T02:21:49;98459.91;;;21.93;41.41
57574;BME280;68988;49.000;21.242;2023-04-22T02:24:15;98463.63;;;21.92;41.30
57574;BME280;68988;49.000;21.242;2023-04-22T02:26:40;98464.47;;;21.92;41.35
57574;BME280;68988;49.000;21.242;2023-04-22T02:29:07;98464.47;;;21.92;41.17
57574;BME280;68988;49.000;21.242;2023-04-22T02:31:32;98459.13;;;21.92;41.24
57574;BME280;68988;49.000;21.242;2023-04-22T02:33:58;98460.97;;;21.92;41.17
57574;BME280;68988;49.000;21.242;2023-04-22T02:36:23;98457.50;;;21.91;41.12
57574;BME280;68988;49.000;21.242;2023-04-22T02:38:48;98455.88;;;21.90;41.34
57574;BME280;68988;49.000;21.242;2023-04-22T02:41:14;98453.22;;;21.90;41.07
57574;BME280;68988;49.000;21.242;2023-04-22T02:43:39;98450.56;;;21.90;41.37
57574;BME280;68988;49.000;21.242;2023-04-22T02:46:10;98462.31;;;21.89;41.32
57574;BME280;68988;49.000;21.242;2023-04-22T02:48:37;98448.13;;;21.89;41.11
57574;BME280;68988;49.000;21.242;2023-04-22T02:51:02;98458.56;;;21.90;41.26
57574;BME280;68988;49.000;21.242;2023-04-22T02:53:28;98447.34;;;21.88;41.37
57574;BME280;68988;49.000;21.242;2023-04-22T02:55:53;98452.69;;;21.88;41.18
57574;BME280;68988;49.000;21.242;2023-04-22T02:58:21;98445.72;;;21.87;41.26
57574;BME280;68988;49.000;21.242;2023-04-22T03:00:46;98454.00;;;21.86;41.07
57574;BME280;68988;49.000;21.242;2023-04-22T03:03:11;98449.22;;;21.88;41.17
57574;BME280;68988;49.000;21.242;2023-04-22T03:05:37;98443.84;;;21.82;41.04
57574;BME280;68988;49.000;21.242;2023-04-22T03:08:02;98452.16;;;21.86;41.28
57574;BME280;68988;49.000;21.242;2023-04-22T03:10:28;98448.66;;;21.86;41.29
57574;BME280;68988;49.000;21.242;2023-04-22T03:12:53;98453.72;;;21.87;41.24
57574;BME280;68988;49.000;21.242;2023-04-22T03:15:18;98453.19;;;21.85;41.33
57574;BME280;68988;49.000;21.242;2023-04-22T03:17:44;98458.53;;;21.85;41.07
57574;BME280;68988;49.000;21.242;2023-04-22T03:20:10;98454.25;;;21.84;41.12
57574;BME280;68988;49.000;21.242;2023-04-22T03:22:35;98464.94;;;21.84;41.10
57574;BME280;68988;49.000;21.242;2023-04-22T03:25:01;98458.78;;;21.84;41.19
57574;BME280;68988;49.000;21.242;2023-04-22T03:27:26;98458.53;;;21.85;41.19
57574;BME280;68988;49.000;21.242;2023-04-22T03:29:52;98460.66;;;21.83;41.07
57574;BME280;68988;49.000;21.242;2023-04-22T03:32:17;98466.81;;;21.84;41.28
57574;BME280;68988;49.000;21.242;2023-04-22T03:34:42;98469.72;;;21.82;41.38
57574;BME280;68988;49.000;21.242;2023-04-22T03:37:08;98469.72;;;21.82;41.35
57574;BME280;68988;49.000;21.242;2023-04-22T03:39:33;98470.53;;;21.82;41.23
57574;BME280;68988;49.000;21.242;2023-04-22T03:41:59;98474.28;;;21.81;41.07
57574;BME280;68988;49.000;21.242;2023-04-22T03:44:25;98474.28;;;21.81;41.28
57574;BME280;68988;49.000;21.242;2023-04-22T03:46:50;98474.28;;;21.81;41.23
57574;BME280;68988;49.000;21.242;2023-04-22T03:49:16;98476.94;;;21.81;40.96
57574;BME280;68988;49.000;21.242;2023-04-22T03:51:41;98486.53;;;21.82;41.35
57574;BME280;68988;49.000;21.242;2023-04-22T03:54:07;98482.03;;;21.83;41.08
57574;BME280;68988;49.000;21.242;2023-04-22T03:56:32;98492.69;;;21.83;41.20
57574;BME280;68988;49.000;21.242;2023-04-22T03:58:57;98496.16;;;21.84;41.35
57574;BME280;68988;49.000;21.242;2023-04-22T04:01:23;98487.09;;;21.85;41.29
57574;BME280;68988;49.000;21.242;2023-04-22T04:03:48;98480.16;;;21.84;41.25
57574;BME280;68988;49.000;21.242;2023-04-22T04:06:14;98496.19;;;21.89;41.00
57574;BME280;68988;49.000;21.242;2023-04-22T04:08:39;98491.66;;;21.89;41.05
57574;BME280;68988;49.000;21.242;2023-04-22T04:11:05;98507.19;;;21.92;41.16
57574;BME280;68988;49.000;21.242;2023-04-22T04:13:30;98502.38;;;21.94;40.84
57574;BME280;68988;49.000;21.242;2023-04-22T04:15:57;98506.41;;;21.97;40.75
57574;BME280;68988;49.000;21.242;2023-04-22T04:18:24;98502.41;;;21.99;40.78
57574;BME280;68988;49.000;21.242;2023-04-22T04:20:49;98500.84;;;22.04;40.77
57574;BME280;68988;49.000;21.242;2023-04-22T04:23:15;98503.53;;;22.09;40.56
57574;BME280;68988;49.000;21.242;2023-04-22T04:25:40;98508.34;;;22.12;40.68
57574;BME280;68988;49.000;21.242;2023-04-22T04:28:09;98504.38;;;22.14;40.62
57574;BME280;68988;49.000;21.242;2023-04-22T04:30:36;98510.25;;;22.16;40.52
57574;BME280;68988;49.000;21.242;2023-04-22T04:33:02;98513.75;;;22.22;40.64
57574;BME280;68988;49.000;21.242;2023-04-22T04:35:35;98510.84;;;22.29;40.58
57574;BME280;68988;49.000;21.242;2023-04-22T04:38:02;98511.69;;;22.29;40.42
57574;BME280;68988;49.000;21.242;2023-04-22T04:40:28;98514.66;;;22.33;40.43
57574;BME280;68988;49.000;21.242;2023-04-22T04:42:54;98517.59;;;22.37;40.46
57574;BME280;68988;49.000;21.242;2023-04-22T04:45:22;98519.25;;;22.43;40.58
57574;BME280;68988;49.000;21.242;2023-04-22T04:47:47;98517.22;;;22.65;39.95
57574;BME280;68988;49.000;21.242;2023-04-22T04:50:17;98523.75;;;23.05;39.28
57574;BME280;68988;49.000;21.242;2023-04-22T04:52:42;98523.81;;;23.26;38.79
57574;BME280;68988;49.000;21.242;2023-04-22T04:55:08;98521.19;;;23.31;38.63
57574;BME280;68988;49.000;21.242;2023-04-22T04:57:33;98521.44;;;23.50;38.36
57574;BME280;68988;49.000;21.242;2023-04-22T04:59:59;98511.53;;;23.35;38.58
57574;BME280;68988;49.000;21.242;2023-04-22T05:02:25;98515.56;;;23.33;38.58
57574;BME280;68988;49.000;21.242;2023-04-22T05:04:51;98515.31;;;23.50;38.32
57574;BME280;68988;49.000;21.242;2023-04-22T05:07:16;98523.31;;;23.39;38.41
57574;BME280;68988;49.000;21.242;2023-04-22T05:09:41;98519.53;;;23.15;38.89
57574;BME280;68988;49.000;21.242;2023-04-22T05:12:07;98514.19;;;23.10;39.09
57574;BME280;68988;49.000;21.242;2023-04-22T05:14:32;98518.94;;;23.02;39.21
57574;BME280;68988;49.000;21.242;2023-04-22T05:16:58;98517.31;;;22.96;39.29
57574;BME280;68988;49.000;21.242;2023-04-22T05:19:23;98522.41;;;22.98;39.27
57574;BME280;68988;49.000;21.242;2023-04-22T05:21:49;98524.25;;;22.92;39.38
57574;BME280;68988;49.000;21.242;2023-04-22T05:24:14;98523.72;;;22.95;39.56
57574;BME280;68988;49.000;21.242;2023-04-22T05:26:40;98522.13;;;22.94;39.35
57574;BME280;68988;49.000;21.242;2023-04-22T05:29:05;98520.78;;;22.97;39.30
57574;BME280;68988;49.000;21.242;2023-04-22T05:31:32;98517.31;;;23.01;39.25
57574;BME280;68988;49.000;21.242;2023-04-22T05:33:58;98526.69;;;23.04;39.10
57574;BME280;68988;49.000;21.242;2023-04-22T05:36:23;98518.75;;;23.14;39.06
57574;BME280;68988;49.000;21.242;2023-04-22T05:38:48;98521.41;;;23.14;39.01
57574;BME280;68988;49.000;21.242;2023-04-22T05:41:14;98518.47;;;23.16;39.15
57574;BME280;68988;49.000;21.242;2023-04-22T05:43:39;98517.94;;;23.24;38.79
57574;BME280;68988;49.000;21.242;2023-04-22T05:46:05;98526.22;;;23.28;38.86
57574;BME280;68988;49.000;21.242;2023-04-22T05:48:31;98516.63;;;23.32;38.83
57574;BME280;68988;49.000;21.242;2023-04-22T05:50:56;98524.41;;;23.44;38.49
57574;BME280;68988;49.000;21.242;2023-04-22T05:53:21;98522.25;;;23.46;38.53
57574;BME280;68988;49.000;21.242;2023-04-22T05:55:47;98524.38;;;23.54;38.25
57574;BME280;68988;49.000;21.242;2023-04-22T05:58:12;98525.75;;;23.56;38.42
57574;BME280;68988;49.000;21.242;2023-04-22T06:00:38;98525.47;;;23.63;38.32
57574;BME280;68988;49.000;21.242;2023-04-22T06:03:03;98529.22;;;23.67;38.14
57574;BME280;68988;49.000;21.242;2023-04-22T06:05:28;98523.31;;;23.75;37.94
57574;BME280;68988;49.000;21.242;2023-04-22T06:07:54;98520.09;;;23.78;38.01
57574;BME280;68988;49.000;21.242;2023-04-22T06:10:19;98527.66;;;23.87;37.87
57574;BME280;68988;49.000;21.242;2023-04-22T06:12:45;98526.84;;;23.91;37.77
57574;BME280;68988;49.000;21.242;2023-04-22T06:15:10;98527.09;;;24.00;37.53
57574;BME280;68988;49.000;21.242;2023-04-22T06:17:36;98521.19;;;24.03;37.34
57574;BME280;68988;49.000;21.242;2023-04-22T06:20:01;98525.47;;;24.04;37.64
57574;BME280;68988;49.000;21.242;2023-04-22T06:22:27;98522.00;;;24.04;37.48
57574;BME280;68988;49.000;21.242;2023-04-22T06:24:52;98524.66;;;24.09;37.52
57574;BME280;68988;49.000;21.242;2023-04-22T06:27:17;98522.78;;;24.09;37.49
57574;BME280;68988;49.000;21.242;2023-04-22T06:29:43;98523.06;;;24.13;37.53
57574;BME280;68988;49.000;21.242;2023-04-22T06:32:08;98519.03;;;24.10;37.56
57574;BME280;68988;49.000;21.242;2023-04-22T06:34:34;98526.00;;;24.11;37.47
57574;BME280;68988;49.000;21.242;2023-04-22T06:36:59;98515.84;;;24.08;37.49
57574;BME280;68988;49.000;21.242;2023-04-22T06:39:24;98519.59;;;24.07;37.69
57574;BME280;68988;49.000;21.242;2023-04-22T06:41:50;98518.53;;;24.08;37.50
57574;BME280;68988;49.000;21.242;2023-04-22T06:44:15;98514.78;;;23.99;37.51
57574;BME280;68988;49.000;21.242;2023-04-22T06:46:40;98515.59;;;23.94;37.71
57574;BME280;68988;49.000;21.242;2023-04-22T06:49:06;98509.44;;;23.89;37.83
57574;BME280;68988;49.000;21.242;2023-04-22T06:51:31;98501.38;;;23.84;37.90
57574;BME280;68988;49.000;21.242;2023-04-22T06:53:57;98513.72;;;23.85;38.10
57574;BME280;68988;49.000;21.242;2023-04-22T06:56:23;98505.41;;;23.76;38.15
57574;BME280;68988;49.000;21.242;2023-04-22T06:58:48;98509.41;;;23.78;38.28
57574;BME280;68988;49.000;21.242;2023-04-22T07:01:14;98513.16;;;23.72;38.32
57574;BME280;68988;49.000;21.242;2023-04-22T07:03:39;98507.78;;;23.72;38.40
57574;BME280;68988;49.000;21.242;2023-04-22T07:06:05;98506.47;;;23.70;38.53
57574;BME280;68988;49.000;21.242;2023-04-22T07:08:30;98504.59;;;23.70;38.42
57574;BME280;68988;49.000;21.242;2023-04-22T07:10:56;98513.16;;;23.72;38.36
57574;BME280;68988;49.000;21.242;2023-04-22T07:13:22;98508.59;;;23.68;38.55
57574;BME280;68988;49.000;21.242;2023-04-22T07:15:47;98498.44;;;23.65;38.51
57574;BME280;68988;49.000;21.242;2023-04-22T07:18:13;98511.00;;;23.69;38.55
57574;BME280;68988;49.000;21.242;2023-04-22T07:20:38;98503.25;;;23.68;38.46
57574;BME280;68988;49.000;21.242;2023-04-22T07:23:04;98510.75;;;23.66;38.49
57574;BME280;68988;49.000;21.242;2023-04-22T07:25:29;98504.59;;;23.65;38.62
57574;BME280;68988;49.000;21.242;2023-04-22T07:27:55;98504.84;;;23.69;38.53
57574;BME280;68988;49.000;21.242;2023-04-22T07:30:20;98505.91;;;23.68;38.54
57574;BME280;68988;49.000;21.242;2023-04-22T07:32:45;98506.19;;;23.66;38.61
57574;BME280;68988;49.000;21.242;2023-04-22T07:35:11;98507.56;;;23.64;38.72
57574;BME280;68988;49.000;21.242;2023-04-22T07:37:36;98505.66;;;23.64;38.59
57574;BME280;68988;49.000;21.242;2023-04-22T07:40:02;98508.88;;;23.61;38.48
57574;BME280;68988;49.000;21.242;2023-04-22T07:42:27;98505.13;;;23.62;38.57
57574;BME280;68988;49.000;21.242;2023-04-22T07:44:53;98506.19;;;23.61;38.51
57574;BME280;68988;49.000;21.242;2023-04-22T07:47:18;98502.47;;;23.62;38.70
57574;BME280;68988;49.000;21.242;2023-04-22T07:49:43;98504.31;;;23.62;38.66
57574;BME280;68988;49.000;21.242;2023-04-22T07:52:09;98493.63;;;23.62;38.70
57574;BME280;68988;49.000;21.242;2023-04-22T07:54:35;98500.31;;;23.59;38.70
57574;BME280;68988;49.000;21.242;2023-04-22T07:57:00;98499.50;;;23.58;38.61
57574;BME280;68988;49.000;21.242;2023-04-22T07:59:26;98494.16;;;23.58;38.66
57574;BME280;68988;49.000;21.242;2023-04-22T08:01:51;98493.63;;;23.62;38.83
57574;BME280;68988;49.000;21.242;2023-04-22T08:04:17;98494.44;;;23.62;38.66
57574;BME280;68988;49.000;21.242;2023-04-22T08:06:43;98496.03;;;23.58;38.66
57574;BME280;68988;49.000;21.242;2023-04-22T08:09:08;98488.53;;;23.60;38.70
57574;BME280;68988;49.000;21.242;2023-04-22T08:11:34;98493.88;;;23.55;38.67
57574;BME280;68988;49.000;21.242;2023-04-22T08:14:00;98492.00;;;23.55;38.68
57574;BME280;68988;49.000;21.242;2023-04-22T08:16:25;98491.75;;;23.52;38.59
57574;BME280;68988;49.000;21.242;2023-04-22T08:18:50;98485.59;;;23.51;38.96
57574;BME280;68988;49.000;21.242;2023-04-22T08:21:16;98487.47;;;23.51;38.81
57574;BME280;68988;49.000;21.242;2023-04-22T08:23:41;98492.81;;;23.51;38.82
57574;BME280;68988;49.000;21.242;2023-04-22T08:26:07;98490.66;;;23.48;38.79
57574;BME280;68988;49.000;21.242;2023-04-22T08:28:33;98491.75;;;23.47;38.92
57574;BME280;68988;49.000;21.242;2023-04-22T08:30:59;98488.53;;;23.45;38.90
57574;BME280;68988;49.000;21.242;2023-04-22T08:33:24;98490.94;;;23.46;38.97
57574;BME280;68988;49.000;21.242;2023-04-22T08:35:50;98483.16;;;23.45;38.84
57574;BME280;68988;49.000;21.242;2023-04-22T08:38:15;98485.84;;;23.45;39.00
57574;BME280;68988;49.000;21.242;2023-04-22T08:40:41;98484.78;;;23.40;39.10
57574;BME280;68988;49.000;21.242;2023-04-22T08:43:07;98488.00;;;23.37;39.01
57574;BME280;68988;49.000;21.242;2023-04-22T08:45:33;98490.69;;;23.37;39.21
57574;BME280;68988;49.000;21.242;2023-04-22T08:47:59;98490.13;;;23.35;39.25
57574;BME280;68988;49.000;21.242;2023-04-22T08:50:25;98487.19;;;23.37;39.16
57574;BME280;68988;49.000;21.242;2023-04-22T08:52:51;98474.06;;;23.35;38.89
57574;BME280;68988;49.000;21.242;2023-04-22T08:55:16;98487.72;;;23.34;39.03
57574;BME280;68988;49.000;21.242;2023-04-22T08:57:43;98479.94;;;23.32;39.20
57574;BME280;68988;49.000;21.242;2023-04-22T09:00:09;98478.38;;;23.31;39.29
57574;BME280;68988;49.000;21.242;2023-04-22T09:02:36;98476.50;;;23.32;39.25
57574;BME280;68988;49.000;21.242;2023-04-22T09:05:04;98482.09;;;23.30;39.34
57574;BME280;68988;49.000;21.242;2023-04-22T09:07:31;98474.06;;;23.30;39.06
57574;BME280;68988;49.000;21.242;2023-04-22T09:09:57;98482.91;;;23.31;39.30
57574;BME280;68988;49.000;21.242;2023-04-22T09:12:26;98484.50;;;23.32;39.11
57574;BME280;68988;49.000;21.242;2023-04-22T09:14:51;98482.63;;;23.27;39.21
57574;BME280;68988;49.000;21.242;2023-04-22T09:17:29;98477.28;;;23.32;39.13
57574;BME280;68988;49.000;21.242;2023-04-22T09:20:02;98483.16;;;23.29;39.26
57574;BME280;68988;49.000;21.242;2023-04-22T09:22:43;98475.69;;;23.31;39.31
57574;BME280;68988;49.000;21.242;2023-04-22T09:27:41;98477.56;;;23.26;39.27
57574;BME280;68988;49.000;21.242;2023-04-22T09:30:08;98473.25;;;23.24;39.21
57574;BME280;68988;49.000;21.242;2023-04-22T09:32:34;98464.44;;;23.24;39.20
57574;BME280;68988;49.000;21.242;2023-04-22T09:35:00;98474.63;;;23.22;39.29
57574;BME280;68988;49.000;21.242;2023-04-22T09:37:25;98469.25;;;23.22;39.23
57574;BME280;68988;49.000;21.242;2023-04-22T09:39:52;98467.66;;;23.21;39.22
57574;BME280;68988;49.000;21.242;2023-04-22T09:42:19;98463.34;;;23.20;39.42
57574;BME280;68988;49.000;21.242;2023-04-22T09:44:49;98458.56;;;23.22;39.41
57574;BME280;68988;49.000;21.242;2023-04-22T09:47:17;98464.47;;;23.34;38.98
57574;BME280;68988;49.000;21.242;2023-04-22T09:49:48;98463.63;;;23.18;39.46
57574;BME280;68988;49.000;21.242;2023-04-22T09:52:23;98460.72;;;23.25;39.16
57574;BME280;68988;49.000;21.242;2023-04-22T09:54:51;98460.41;;;23.16;39.37
57574;BME280;68988;49.000;21.242;2023-04-22T09:57:17;98461.78;;;23.19;39.24
57574;BME280;68988;49.000;21.242;2023-04-22T09:59:43;98460.41;;;23.16;39.25
57574;BME280;68988;49.000;21.242;2023-04-22T10:02:08;98452.13;;;23.18;39.24
57574;BME280;68988;49.000;21.242;2023-04-22T10:04:34;98452.13;;;23.18;39.30
57574;BME280;68988;49.000;21.242;2023-04-22T10:07:00;98455.88;;;23.17;39.42
57574;BME280;68988;49.000;21.242;2023-04-22T10:09:27;98443.59;;;23.16;39.25
57574;BME280;68988;49.000;21.242;2023-04-22T10:11:54;98448.41;;;23.19;39.41
57574;BME280;68988;49.000;21.242;2023-04-22T10:14:21;98437.69;;;23.19;39.11
57574;BME280;68988;49.000;21.242;2023-04-22T10:16:46;98443.59;;;23.16;39.53
57574;BME280;68988;49.000;21.242;2023-04-22T10:19:23;98441.44;;;23.18;39.24
57574;BME280;68988;49.000;21.242;2023-04-22T10:21:53;98438.22;;;23.16;39.32
57574;BME280;68988;49.000;21.242;2023-04-22T10:24:20;98431.50;;;23.08;39.46
57574;BME280;68988;49.000;21.242;2023-04-22T10:26:58;98434.47;;;23.17;39.39
57574;BME280;68988;49.000;21.242;2023-04-22T10:29:36;98437.13;;;23.17;39.30
57574;BME280;68988;49.000;21.242;2023-04-22T10:34:48;98428.59;;;23.10;39.39
57574;BME280;68988;49.000;21.242;2023-04-22T10:37:18;98430.19;;;23.11;39.46
57574;BME280;68988;49.000;21.242;2023-04-22T10:40:14;98431.78;;;23.17;39.37
57574;BME280;68988;49.000;21.242;2023-04-22T10:42:50;98431.81;;;23.12;39.35
57574;BME280;68988;49.000;21.242;2023-04-22T10:45:16;98424.84;;;23.11;39.26
57574;BME280;68988;49.000;21.242;2023-04-22T10:47:42;98425.38;;;23.13;39.40
57574;BME280;68988;49.000;21.242;2023-04-22T10:52:50;98412.00;;;23.13;39.44
57574;BME280;68988;49.000;21.242;2023-04-22T10:55:16;98420.81;;;23.08;39.56
57574;BME280;68988;49.000;21.242;2023-04-22T10:57:44;98413.59;;;23.14;39.35
57574;BME280;68988;49.000;21.242;2023-04-22T11:02:45;98412.00;;;23.13;39.46
57574;BME280;68988;49.000;21.242;2023-04-22T11:05:25;98391.38;;;23.08;39.21
57574;BME280;68988;49.000;21.242;2023-04-22T11:07:59;98405.59;;;23.09;39.40
57574;BME280;68988;49.000;21.242;2023-04-22T11:10:47;98399.16;;;23.15;39.31
57574;BME280;68988;49.000;21.242;2023-04-22T11:13:14;98395.13;;;23.07;39.38
57574;BME280;68988;49.000;21.242;2023-04-22T11:15:42;98388.72;;;23.08;39.33
57574;BME280;68988;49.000;21.242;2023-04-22T11:18:19;98397.03;;;23.12;39.47
57574;BME280;68988;49.000;21.242;2023-04-22T11:20:45;98378.03;;;23.08;39.47
57574;BME280;68988;49.000;21.242;2023-04-22T11:23:21;98394.88;;;23.09;39.30
57574;BME280;68988;49.000;21.242;2023-04-22T11:25:47;98392.22;;;23.09;39.49
57574;BME280;68988;49.000;21.242;2023-04-22T11:28:12;98388.47;;;23.10;39.50
57574;BME280;68988;49.000;21.242;2023-04-22T11:30:37;98380.97;;;23.06;39.37
57574;BME280;68988;49.000;21.242;2023-04-22T11:33:03;98389.78;;;23.07;39.12
57574;BME280;68988;49.000;21.242;2023-04-22T11:35:31;98389.00;;;23.12;39.25
57574;BME280;68988;49.000;21.242;2023-04-22T11:38:01;98393.81;;;23.10;39.49
57574;BME280;68988;49.000;21.242;2023-04-22T11:40:35;98391.94;;;23.10;39.27
57574;BME280;68988;49.000;21.242;2023-04-22T11:43:03;98390.03;;;23.05;39.39
57574;BME280;68988;49.000;21.242;2023-04-22T11:45:31;98385.75;;;23.04;39.45
57574;BME280;68988;49.000;21.242;2023-04-22T11:47:57;98386.31;;;23.06;39.39
57574;BME280;68988;49.000;21.242;2023-04-22T11:50:34;98381.50;;;23.14;39.41
57574;BME280;68988;49.000;21.242;2023-04-22T11:53:02;98378.03;;;23.08;39.28
57574;BME280;68988;49.000;21.242;2023-04-22T11:55:33;98376.16;;;23.09;39.46
57574;BME280;68988;49.000;21.242;2023-04-22T12:00:45;98372.66;;;23.08;39.29
57574;BME280;68988;49.000;21.242;2023-04-22T12:03:12;98376.66;;;23.05;39.59
57574;BME280;68988;49.000;21.242;2023-04-22T12:06:00;98370.53;;;23.05;39.48
57574;BME280;68988;49.000;21.242;2023-04-22T12:08:29;98370.78;;;23.03;39.44
57574;BME280;68988;49.000;21.242;2023-04-22T12:10:57;98369.97;;;23.03;39.46
57574;BME280;68988;49.000;21.242;2023-04-22T12:16:14;98371.06;;;23.12;39.36
57574;BME280;68988;49.000;21.242;2023-04-22T12:18:47;98370.25;;;23.06;39.39
57574;BME280;68988;49.000;21.242;2023-04-22T12:21:13;98364.13;;;23.16;39.18
57574;BME280;68988;49.000;21.242;2023-04-22T12:26:13;98355.56;;;22.99;39.34
57574;BME280;68988;49.000;21.242;2023-04-22T12:28:42;98362.75;;;22.98;39.72
57574;BME280;68988;49.000;21.242;2023-04-22T12:31:08;98357.13;;;23.00;39.57
57574;BME280;68988;49.000;21.242;2023-04-22T12:33:34;98357.69;;;23.02;39.58
57574;BME280;68988;49.000;21.242;2023-04-22T12:36:00;98360.09;;;23.03;39.55
57574;BME280;68988;49.000;21.242;2023-04-22T12:38:25;98352.06;;;23.03;39.52
57574;BME280;68988;49.000;21.242;2023-04-22T12:40:51;98356.34;;;23.04;39.33
57574;BME280;68988;49.000;21.242;2023-04-22T12:43:17;98354.47;;;23.05;39.48
57574;BME280;68988;49.000;21.242;2023-04-22T12:45:43;98345.63;;;23.04;39.51
57574;BME280;68988;49.000;21.242;2023-04-22T12:48:08;98341.91;;;23.05;39.05
57574;BME280;68988;49.000;21.242;2023-04-22T12:50:34;98340.81;;;23.01;39.44
57574;BME280;68988;49.000;21.242;2023-04-22T12:52:59;98344.59;;;23.05;39.39
57574;BME280;68988;49.000;21.242;2023-04-22T12:55:25;98336.06;;;23.09;39.37
57574;BME280;68988;49.000;21.242;2023-04-22T12:57:51;98341.38;;;23.03;39.43
57574;BME280;68988;49.000;21.242;2023-04-22T13:00:17;98341.66;;;23.02;39.36
57574;BME280;68988;49.000;21.242;2023-04-22T13:02:44;98336.31;;;23.02;39.46
57574;BME280;68988;49.000;21.242;2023-04-22T13:05:11;98338.97;;;23.02;39.41